Norton, KS

7:18 PM CDT on May 25, 2015 (GMT -0500)
Prairie View, KS | | Change Station
CLOSE
Current Station
Personal Weather Station
Location: Prairie View, KS
Elevation: 2165 ft
Nearby Weather Stations

Elev 2165 ft 39.82 °N, 99.57 °W | Updated 5 minutes ago

Partly Cloudy
Partly Cloudy
75.7 °F
Feels Like 78 °F
N
4.2
Wind Variable Wind from WNW

Today
High -- | Low -- °F
--% Chance of Precip.
Yesterday
High -- | Low -- °F
Precip. -- in
6:17 AM 8:56 PM
First Quarter, 53% visible
Pressure 29.74 in
Visibility 10.0 miles
Clouds Mostly Cloudy 7500 ft
Heat Index 78 °F
Dew Point 52 °F
Humidity 44%
Rainfall 0.20 in
Snow Depth Not available.
UV 1 out of 12
Pollen 1.50 out of 12
Air Quality Not available.
Flu Activity No Activity
METAR KHLC 252353Z AUTO 29010KT 10SM BKN075 23/11 A2977 RMK AO2 SLP069 T02280111 10256 20211 56008 $

More Conditions Fewer Conditions

Pressure 29.74 in
Visibility 10.0 miles
Clouds Mostly Cloudy 7500 ft
Heat Index 78 °F
Dew Point 52 °F
Humidity 44%
Rainfall 0.20 in
Snow Depth Not available.
UV 1 out of 12
Pollen 1.50 out of 12
Air Quality Not available.
Flu Activity No Activity
METAR KHLC 252353Z AUTO 29010KT 10SM BKN075 23/11 A2977 RMK AO2 SLP069 T02280111 10256 20211 56008 $

More Conditions Fewer Conditions

10-Day Weather Forecast

Almanac

Astronomy

May. 25, 2015 Rise Set
Actual Time
Civil Twilight
Nautical Twilight
Astronomical Twilight
Moon
Length of Visible Light
Length of Day
Tomorrow will be .
, % of the Moon is Illuminated

Today's Extremes

State Highs State Lows

Community

WunderPhotos

Upload Photos

1,824,185 photos uploaded!

WunderBlogs® & News

Nearby

Air Quality

  Air Quality AQ Index Pollutant
Not available.

Snow Depth

Station Depth Elevation

Earthquake Activity

City Distance Mag. Time & Date
Minimum magnitude displayed is 2.5.

Coastal Water Temperatures

Place Temperature

Stations

Nearby Weather Stations

Station Location Temp. Windchill Dew Point Humidity Wind Precip. Elev Updated Type